sensor_id;sensor_type;location;lat;lon;timestamp;P1;durP1;ratioP1;P2;durP2;ratioP2
73557;SDS011;61829;53.286;10.434;2023-03-17T00:00:48;3.83;;;1.80;;
73557;SDS011;61829;53.286;10.434;2023-03-17T00:03:24;3.95;;;2.00;;
73557;SDS011;61829;53.286;10.434;2023-03-17T00:05:52;4.63;;;2.00;;
73557;SDS011;61829;53.286;10.434;2023-03-17T00:08:22;4.65;;;2.13;;
73557;SDS011;61829;53.286;10.434;2023-03-17T00:10:50;2.78;;;1.75;;
73557;SDS011;61829;53.286;10.434;2023-03-17T00:13:16;5.75;;;2.10;;
73557;SDS011;61829;53.286;10.434;2023-03-17T00:15:50;4.20;;;2.15;;
73557;SDS011;61829;53.286;10.434;2023-03-17T00:18:18;4.32;;;1.85;;
73557;SDS011;61829;53.286;10.434;2023-03-17T00:20:45;6.40;;;2.22;;
73557;SDS011;61829;53.286;10.434;2023-03-17T00:23:16;6.07;;;2.15;;
73557;SDS011;61829;53.286;10.434;2023-03-17T00:25:45;4.93;;;2.30;;
73557;SDS011;61829;53.286;10.434;2023-03-17T00:28:15;5.28;;;2.10;;
73557;SDS011;61829;53.286;10.434;2023-03-17T00:30:44;5.03;;;2.08;;
73557;SDS011;61829;53.286;10.434;2023-03-17T00:33:10;2.85;;;1.90;;
73557;SDS011;61829;53.286;10.434;2023-03-17T00:35:37;4.47;;;2.00;;
73557;SDS011;61829;53.286;10.434;2023-03-17T00:38:05;3.53;;;2.05;;
73557;SDS011;61829;53.286;10.434;2023-03-17T00:40:32;7.13;;;2.20;;
73557;SDS011;61829;53.286;10.434;2023-03-17T00:42:58;4.47;;;1.90;;
73557;SDS011;61829;53.286;10.434;2023-03-17T00:45:27;4.00;;;2.10;;
73557;SDS011;61829;53.286;10.434;2023-03-17T00:47:53;4.90;;;2.17;;
73557;SDS011;61829;53.286;10.434;2023-03-17T00:50:25;4.35;;;2.03;;
73557;SDS011;61829;53.286;10.434;2023-03-17T00:52:53;6.38;;;2.10;;
73557;SDS011;61829;53.286;10.434;2023-03-17T00:55:21;5.97;;;1.95;;
73557;SDS011;61829;53.286;10.434;2023-03-17T00:57:49;4.60;;;2.30;;
73557;SDS011;61829;53.286;10.434;2023-03-17T01:02:50;4.50;;;1.90;;
73557;SDS011;61829;53.286;10.434;2023-03-17T01:05:17;5.05;;;2.08;;
73557;SDS011;61829;53.286;10.434;2023-03-17T01:07:44;4.15;;;1.92;;
73557;SDS011;61829;53.286;10.434;2023-03-17T01:12:45;3.65;;;1.77;;
73557;SDS011;61829;53.286;10.434;2023-03-17T01:15:12;4.38;;;1.90;;
73557;SDS011;61829;53.286;10.434;2023-03-17T01:17:38;6.00;;;2.05;;
73557;SDS011;61829;53.286;10.434;2023-03-17T01:20:05;3.75;;;1.83;;
73557;SDS011;61829;53.286;10.434;2023-03-17T01:22:33;3.08;;;1.90;;
73557;SDS011;61829;53.286;10.434;2023-03-17T01:24:59;4.38;;;1.83;;
73557;SDS011;61829;53.286;10.434;2023-03-17T01:27:25;6.88;;;2.00;;
73557;SDS011;61829;53.286;10.434;2023-03-17T01:29:51;4.82;;;2.45;;
73557;SDS011;61829;53.286;10.434;2023-03-17T01:32:18;4.35;;;2.08;;
73557;SDS011;61829;53.286;10.434;2023-03-17T01:34:44;4.88;;;2.17;;
73557;SDS011;61829;53.286;10.434;2023-03-17T01:37:10;3.58;;;1.75;;
73557;SDS011;61829;53.286;10.434;2023-03-17T01:39:37;4.40;;;1.83;;
73557;SDS011;61829;53.286;10.434;2023-03-17T01:42:02;4.20;;;1.95;;
73557;SDS011;61829;53.286;10.434;2023-03-17T01:44:29;6.18;;;2.42;;
73557;SDS011;61829;53.286;10.434;2023-03-17T01:46:55;4.53;;;2.22;;
73557;SDS011;61829;53.286;10.434;2023-03-17T01:49:26;3.90;;;2.05;;
73557;SDS011;61829;53.286;10.434;2023-03-17T01:52:12;5.38;;;2.25;;
73557;SDS011;61829;53.286;10.434;2023-03-17T02:02:36;4.53;;;2.00;;
73557;SDS011;61829;53.286;10.434;2023-03-17T02:05:06;5.60;;;2.15;;
73557;SDS011;61829;53.286;10.434;2023-03-17T02:07:33;7.20;;;2.50;;
73557;SDS011;61829;53.286;10.434;2023-03-17T02:10:00;4.07;;;2.10;;
73557;SDS011;61829;53.286;10.434;2023-03-17T02:12:28;4.40;;;2.30;;
73557;SDS011;61829;53.286;10.434;2023-03-17T02:14:55;4.43;;;2.30;;
73557;SDS011;61829;53.286;10.434;2023-03-17T02:17:23;7.88;;;2.33;;
73557;SDS011;61829;53.286;10.434;2023-03-17T02:19:51;5.93;;;3.03;;
73557;SDS011;61829;53.286;10.434;2023-03-17T02:22:17;5.18;;;2.42;;
73557;SDS011;61829;53.286;10.434;2023-03-17T02:24:48;8.25;;;2.58;;
73557;SDS011;61829;53.286;10.434;2023-03-17T02:27:34;4.53;;;2.28;;
73557;SDS011;61829;53.286;10.434;2023-03-17T02:30:04;5.15;;;2.47;;
73557;SDS011;61829;53.286;10.434;2023-03-17T02:32:33;5.45;;;2.58;;
73557;SDS011;61829;53.286;10.434;2023-03-17T02:35:01;4.72;;;2.47;;
73557;SDS011;61829;53.286;10.434;2023-03-17T02:40:48;3.75;;;2.15;;
73557;SDS011;61829;53.286;10.434;2023-03-17T02:43:14;4.40;;;2.10;;
73557;SDS011;61829;53.286;10.434;2023-03-17T02:45:40;5.93;;;2.80;;
73557;SDS011;61829;53.286;10.434;2023-03-17T02:48:06;4.60;;;2.30;;
73557;SDS011;61829;53.286;10.434;2023-03-17T02:50:32;5.35;;;2.40;;
73557;SDS011;61829;53.286;10.434;2023-03-17T02:52:58;5.45;;;2.50;;
73557;SDS011;61829;53.286;10.434;2023-03-17T02:55:24;4.47;;;2.30;;
73557;SDS011;61829;53.286;10.434;2023-03-17T02:57:51;5.65;;;2.45;;
73557;SDS011;61829;53.286;10.434;2023-03-17T03:00:17;5.28;;;2.60;;
73557;SDS011;61829;53.286;10.434;2023-03-17T03:05:34;7.45;;;2.60;;
73557;SDS011;61829;53.286;10.434;2023-03-17T03:08:00;4.45;;;2.40;;
73557;SDS011;61829;53.286;10.434;2023-03-17T03:10:26;4.55;;;2.53;;
73557;SDS011;61829;53.286;10.434;2023-03-17T03:12:51;4.22;;;2.35;;
73557;SDS011;61829;53.286;10.434;2023-03-17T03:15:17;9.95;;;2.83;;
73557;SDS011;61829;53.286;10.434;2023-03-17T03:20:11;5.93;;;2.47;;
73557;SDS011;61829;53.286;10.434;2023-03-17T03:22:37;5.07;;;2.60;;
73557;SDS011;61829;53.286;10.434;2023-03-17T03:25:04;5.30;;;2.58;;
73557;SDS011;61829;53.286;10.434;2023-03-17T03:27:31;5.13;;;2.75;;
73557;SDS011;61829;53.286;10.434;2023-03-17T03:29:57;5.53;;;2.50;;
73557;SDS011;61829;53.286;10.434;2023-03-17T03:32:23;4.75;;;2.60;;
73557;SDS011;61829;53.286;10.434;2023-03-17T03:34:49;6.15;;;2.55;;
73557;SDS011;61829;53.286;10.434;2023-03-17T03:37:15;4.07;;;2.40;;
73557;SDS011;61829;53.286;10.434;2023-03-17T03:39:41;5.40;;;2.47;;
73557;SDS011;61829;53.286;10.434;2023-03-17T03:42:07;4.45;;;2.10;;
73557;SDS011;61829;53.286;10.434;2023-03-17T03:44:33;4.68;;;2.33;;
73557;SDS011;61829;53.286;10.434;2023-03-17T03:47:04;5.93;;;2.58;;
73557;SDS011;61829;53.286;10.434;2023-03-17T03:49:30;5.03;;;2.92;;
73557;SDS011;61829;53.286;10.434;2023-03-17T03:51:56;5.22;;;2.50;;
73557;SDS011;61829;53.286;10.434;2023-03-17T03:54:22;5.72;;;2.65;;
73557;SDS011;61829;53.286;10.434;2023-03-17T03:56:47;4.97;;;2.85;;
73557;SDS011;61829;53.286;10.434;2023-03-17T03:59:13;5.80;;;2.75;;
73557;SDS011;61829;53.286;10.434;2023-03-17T04:01:39;4.95;;;2.75;;
73557;SDS011;61829;53.286;10.434;2023-03-17T04:04:06;4.97;;;2.58;;
73557;SDS011;61829;53.286;10.434;2023-03-17T04:06:31;5.28;;;2.58;;
73557;SDS011;61829;53.286;10.434;2023-03-17T04:08:57;6.50;;;2.85;;
73557;SDS011;61829;53.286;10.434;2023-03-17T04:11:23;4.55;;;2.35;;
73557;SDS011;61829;53.286;10.434;2023-03-17T04:13:49;5.78;;;2.55;;
73557;SDS011;61829;53.286;10.434;2023-03-17T04:16:14;5.55;;;2.78;;
73557;SDS011;61829;53.286;10.434;2023-03-17T04:18:40;5.68;;;2.80;;
73557;SDS011;61829;53.286;10.434;2023-03-17T04:21:06;6.25;;;2.72;;
73557;SDS011;61829;53.286;10.434;2023-03-17T04:23:32;5.28;;;2.75;;
73557;SDS011;61829;53.286;10.434;2023-03-17T04:25:59;4.70;;;2.60;;
73557;SDS011;61829;53.286;10.434;2023-03-17T04:28:24;7.00;;;3.65;;
73557;SDS011;61829;53.286;10.434;2023-03-17T04:30:50;6.45;;;3.28;;
73557;SDS011;61829;53.286;10.434;2023-03-17T04:33:16;7.13;;;4.40;;
73557;SDS011;61829;53.286;10.434;2023-03-17T04:35:43;5.53;;;2.78;;
73557;SDS011;61829;53.286;10.434;2023-03-17T04:38:10;6.72;;;3.17;;
73557;SDS011;61829;53.286;10.434;2023-03-17T04:40:37;4.53;;;3.00;;
73557;SDS011;61829;53.286;10.434;2023-03-17T04:43:03;5.20;;;2.88;;
73557;SDS011;61829;53.286;10.434;2023-03-17T04:45:29;5.82;;;2.70;;
73557;SDS011;61829;53.286;10.434;2023-03-17T04:47:55;7.93;;;3.40;;
73557;SDS011;61829;53.286;10.434;2023-03-17T04:50:20;5.25;;;3.25;;
73557;SDS011;61829;53.286;10.434;2023-03-17T04:52:46;6.40;;;3.42;;
73557;SDS011;61829;53.286;10.434;2023-03-17T04:55:12;5.18;;;2.88;;
73557;SDS011;61829;53.286;10.434;2023-03-17T04:57:39;5.68;;;3.33;;
73557;SDS011;61829;53.286;10.434;2023-03-17T05:00:07;6.30;;;3.03;;
73557;SDS011;61829;53.286;10.434;2023-03-17T05:02:34;9.40;;;3.10;;
73557;SDS011;61829;53.286;10.434;2023-03-17T05:05:00;4.80;;;2.72;;
73557;SDS011;61829;53.286;10.434;2023-03-17T05:07:26;7.15;;;2.95;;
73557;SDS011;61829;53.286;10.434;2023-03-17T05:09:52;4.30;;;2.38;;
73557;SDS011;61829;53.286;10.434;2023-03-17T05:12:18;5.78;;;2.80;;
73557;SDS011;61829;53.286;10.434;2023-03-17T05:14:44;6.57;;;2.58;;
73557;SDS011;61829;53.286;10.434;2023-03-17T05:17:10;6.70;;;2.92;;
73557;SDS011;61829;53.286;10.434;2023-03-17T05:19:35;5.43;;;3.17;;
73557;SDS011;61829;53.286;10.434;2023-03-17T05:22:02;6.10;;;3.00;;
73557;SDS011;61829;53.286;10.434;2023-03-17T05:24:27;4.95;;;2.65;;
73557;SDS011;61829;53.286;10.434;2023-03-17T05:26:53;6.00;;;3.03;;
73557;SDS011;61829;53.286;10.434;2023-03-17T05:29:19;5.65;;;2.85;;
73557;SDS011;61829;53.286;10.434;2023-03-17T05:31:45;5.25;;;2.90;;
73557;SDS011;61829;53.286;10.434;2023-03-17T05:34:11;6.53;;;2.97;;
73557;SDS011;61829;53.286;10.434;2023-03-17T05:36:40;5.35;;;2.92;;
73557;SDS011;61829;53.286;10.434;2023-03-17T05:39:06;6.95;;;2.85;;
73557;SDS011;61829;53.286;10.434;2023-03-17T05:41:32;5.68;;;3.38;;
73557;SDS011;61829;53.286;10.434;2023-03-17T05:43:58;6.78;;;3.10;;
73557;SDS011;61829;53.286;10.434;2023-03-17T05:46:24;5.60;;;3.30;;
73557;SDS011;61829;53.286;10.434;2023-03-17T05:48:50;8.82;;;2.63;;
73557;SDS011;61829;53.286;10.434;2023-03-17T05:51:16;5.60;;;3.08;;
73557;SDS011;61829;53.286;10.434;2023-03-17T05:53:42;6.32;;;3.00;;
73557;SDS011;61829;53.286;10.434;2023-03-17T05:56:08;6.05;;;3.20;;
73557;SDS011;61829;53.286;10.434;2023-03-17T05:58:34;6.63;;;2.72;;
73557;SDS011;61829;53.286;10.434;2023-03-17T06:01:00;6.07;;;2.88;;
73557;SDS011;61829;53.286;10.434;2023-03-17T06:03:26;7.40;;;2.80;;
73557;SDS011;61829;53.286;10.434;2023-03-17T06:05:52;7.55;;;2.92;;
73557;SDS011;61829;53.286;10.434;2023-03-17T06:08:17;6.97;;;3.40;;
73557;SDS011;61829;53.286;10.434;2023-03-17T06:10:44;6.50;;;3.05;;
73557;SDS011;61829;53.286;10.434;2023-03-17T06:13:19;6.13;;;2.95;;
73557;SDS011;61829;53.286;10.434;2023-03-17T06:15:45;5.75;;;2.88;;
73557;SDS011;61829;53.286;10.434;2023-03-17T06:18:12;5.80;;;2.75;;
73557;SDS011;61829;53.286;10.434;2023-03-17T06:20:38;5.63;;;3.00;;
73557;SDS011;61829;53.286;10.434;2023-03-17T06:23:04;7.82;;;3.00;;
73557;SDS011;61829;53.286;10.434;2023-03-17T06:25:34;4.82;;;2.50;;
73557;SDS011;61829;53.286;10.434;2023-03-17T06:28:00;4.15;;;2.15;;
73557;SDS011;61829;53.286;10.434;2023-03-17T06:30:28;6.90;;;2.90;;
73557;SDS011;61829;53.286;10.434;2023-03-17T06:32:54;7.13;;;3.40;;
73557;SDS011;61829;53.286;10.434;2023-03-17T06:35:20;6.32;;;3.15;;
73557;SDS011;61829;53.286;10.434;2023-03-17T06:37:47;5.55;;;2.85;;
73557;SDS011;61829;53.286;10.434;2023-03-17T06:40:16;5.07;;;2.75;;
73557;SDS011;61829;53.286;10.434;2023-03-17T06:42:42;7.70;;;2.95;;
73557;SDS011;61829;53.286;10.434;2023-03-17T06:45:08;5.15;;;2.92;;
73557;SDS011;61829;53.286;10.434;2023-03-17T06:47:34;6.72;;;2.72;;
73557;SDS011;61829;53.286;10.434;2023-03-17T06:52:28;4.82;;;2.53;;
73557;SDS011;61829;53.286;10.434;2023-03-17T06:54:54;5.70;;;2.65;;
73557;SDS011;61829;53.286;10.434;2023-03-17T06:57:21;6.38;;;3.10;;
73557;SDS011;61829;53.286;10.434;2023-03-17T06:59:47;5.90;;;2.70;;
73557;SDS011;61829;53.286;10.434;2023-03-17T07:02:13;5.38;;;2.95;;
73557;SDS011;61829;53.286;10.434;2023-03-17T07:04:39;5.57;;;3.28;;
73557;SDS011;61829;53.286;10.434;2023-03-17T07:07:06;5.30;;;3.03;;
73557;SDS011;61829;53.286;10.434;2023-03-17T07:09:41;5.00;;;2.80;;
73557;SDS011;61829;53.286;10.434;2023-03-17T07:12:07;5.80;;;3.30;;
73557;SDS011;61829;53.286;10.434;2023-03-17T07:14:35;6.93;;;3.75;;
73557;SDS011;61829;53.286;10.434;2023-03-17T07:17:01;6.75;;;3.03;;
73557;SDS011;61829;53.286;10.434;2023-03-17T07:19:28;6.20;;;2.60;;
73557;SDS011;61829;53.286;10.434;2023-03-17T07:21:54;7.65;;;3.00;;
73557;SDS011;61829;53.286;10.434;2023-03-17T07:24:21;6.22;;;3.10;;
73557;SDS011;61829;53.286;10.434;2023-03-17T07:26:47;6.30;;;2.90;;
73557;SDS011;61829;53.286;10.434;2023-03-17T07:29:17;5.05;;;3.10;;
73557;SDS011;61829;53.286;10.434;2023-03-17T07:31:43;5.85;;;2.75;;
73557;SDS011;61829;53.286;10.434;2023-03-17T07:36:37;4.25;;;2.55;;
73557;SDS011;61829;53.286;10.434;2023-03-17T07:41:29;7.13;;;3.22;;
73557;SDS011;61829;53.286;10.434;2023-03-17T07:43:55;6.78;;;3.10;;
73557;SDS011;61829;53.286;10.434;2023-03-17T07:46:21;5.90;;;2.75;;
73557;SDS011;61829;53.286;10.434;2023-03-17T07:48:48;5.05;;;2.88;;
73557;SDS011;61829;53.286;10.434;2023-03-17T07:51:15;5.95;;;2.85;;
73557;SDS011;61829;53.286;10.434;2023-03-17T07:53:43;5.38;;;2.83;;
73557;SDS011;61829;53.286;10.434;2023-03-17T07:56:11;6.15;;;3.17;;
73557;SDS011;61829;53.286;10.434;2023-03-17T07:58:37;5.53;;;3.05;;
73557;SDS011;61829;53.286;10.434;2023-03-17T08:01:03;6.25;;;3.28;;
73557;SDS011;61829;53.286;10.434;2023-03-17T08:03:29;6.10;;;2.85;;
73557;SDS011;61829;53.286;10.434;2023-03-17T08:05:57;6.97;;;3.13;;
73557;SDS011;61829;53.286;10.434;2023-03-17T08:08:25;4.55;;;2.60;;
73557;SDS011;61829;53.286;10.434;2023-03-17T08:10:56;5.72;;;3.35;;
73557;SDS011;61829;53.286;10.434;2023-03-17T08:13:25;6.45;;;3.03;;
73557;SDS011;61829;53.286;10.434;2023-03-17T08:15:51;6.22;;;3.03;;
73557;SDS011;61829;53.286;10.434;2023-03-17T08:18:17;8.45;;;3.00;;
73557;SDS011;61829;53.286;10.434;2023-03-17T08:20:43;6.00;;;2.85;;
73557;SDS011;61829;53.286;10.434;2023-03-17T08:23:10;7.50;;;2.95;;
73557;SDS011;61829;53.286;10.434;2023-03-17T08:25:35;6.60;;;2.95;;
73557;SDS011;61829;53.286;10.434;2023-03-17T08:28:01;7.63;;;2.85;;
73557;SDS011;61829;53.286;10.434;2023-03-17T08:30:27;5.80;;;2.55;;
73557;SDS011;61829;53.286;10.434;2023-03-17T08:32:54;4.82;;;2.90;;
73557;SDS011;61829;53.286;10.434;2023-03-17T08:35:19;6.60;;;3.20;;
73557;SDS011;61829;53.286;10.434;2023-03-17T08:37:45;4.95;;;2.47;;
73557;SDS011;61829;53.286;10.434;2023-03-17T08:40:13;6.20;;;3.03;;
73557;SDS011;61829;53.286;10.434;2023-03-17T08:42:45;6.30;;;3.10;;
73557;SDS011;61829;53.286;10.434;2023-03-17T08:45:12;6.30;;;3.20;;
73557;SDS011;61829;53.286;10.434;2023-03-17T08:47:39;6.10;;;3.40;;
73557;SDS011;61829;53.286;10.434;2023-03-17T08:50:06;5.60;;;3.17;;
73557;SDS011;61829;53.286;10.434;2023-03-17T08:52:38;5.65;;;3.10;;
73557;SDS011;61829;53.286;10.434;2023-03-17T08:55:04;5.18;;;2.70;;
73557;SDS011;61829;53.286;10.434;2023-03-17T08:57:31;4.85;;;2.22;;
73557;SDS011;61829;53.286;10.434;2023-03-17T08:59:57;4.75;;;2.47;;
73557;SDS011;61829;53.286;10.434;2023-03-17T09:02:25;6.15;;;3.10;;
73557;SDS011;61829;53.286;10.434;2023-03-17T09:04:51;5.13;;;3.00;;
73557;SDS011;61829;53.286;10.434;2023-03-17T09:07:17;6.43;;;2.75;;
73557;SDS011;61829;53.286;10.434;2023-03-17T09:09:43;6.53;;;2.85;;
73557;SDS011;61829;53.286;10.434;2023-03-17T09:12:27;4.57;;;2.20;;
73557;SDS011;61829;53.286;10.434;2023-03-17T09:14:54;7.57;;;2.42;;
73557;SDS011;61829;53.286;10.434;2023-03-17T09:17:21;4.80;;;2.58;;
73557;SDS011;61829;53.286;10.434;2023-03-17T09:19:47;6.45;;;2.75;;
73557;SDS011;61829;53.286;10.434;2023-03-17T09:22:14;4.38;;;2.65;;
73557;SDS011;61829;53.286;10.434;2023-03-17T09:24:42;5.57;;;2.63;;
73557;SDS011;61829;53.286;10.434;2023-03-17T09:27:07;6.32;;;3.08;;
73557;SDS011;61829;53.286;10.434;2023-03-17T09:29:33;5.20;;;2.67;;
73557;SDS011;61829;53.286;10.434;2023-03-17T09:32:00;6.00;;;2.80;;
73557;SDS011;61829;53.286;10.434;2023-03-17T09:34:25;5.63;;;2.80;;
73557;SDS011;61829;53.286;10.434;2023-03-17T09:36:52;5.18;;;2.80;;
73557;SDS011;61829;53.286;10.434;2023-03-17T09:44:39;6.75;;;2.70;;
73557;SDS011;61829;53.286;10.434;2023-03-17T09:49:59;5.57;;;2.60;;
73557;SDS011;61829;53.286;10.434;2023-03-17T09:52:34;5.47;;;2.40;;
73557;SDS011;61829;53.286;10.434;2023-03-17T09:55:01;6.38;;;3.00;;
73557;SDS011;61829;53.286;10.434;2023-03-17T09:57:34;6.03;;;2.60;;
73557;SDS011;61829;53.286;10.434;2023-03-17T10:02:33;7.68;;;3.10;;
73557;SDS011;61829;53.286;10.434;2023-03-17T10:05:06;6.72;;;2.50;;
73557;SDS011;61829;53.286;10.434;2023-03-17T10:10:36;4.38;;;2.70;;
73557;SDS011;61829;53.286;10.434;2023-03-17T10:15:51;4.45;;;2.50;;
73557;SDS011;61829;53.286;10.434;2023-03-17T10:18:19;7.53;;;2.50;;
73557;SDS011;61829;53.286;10.434;2023-03-17T10:20:59;4.38;;;2.65;;
73557;SDS011;61829;53.286;10.434;2023-03-17T10:23:32;4.28;;;2.40;;
73557;SDS011;61829;53.286;10.434;2023-03-17T10:26:36;3.97;;;1.95;;
73557;SDS011;61829;53.286;10.434;2023-03-17T10:28:58;4.38;;;2.20;;
73557;SDS011;61829;53.286;10.434;2023-03-17T10:31:29;4.43;;;2.22;;
73557;SDS011;61829;53.286;10.434;2023-03-17T10:39:46;4.30;;;2.33;;
73557;SDS011;61829;53.286;10.434;2023-03-17T10:42:18;4.35;;;2.28;;
73557;SDS011;61829;53.286;10.434;2023-03-17T10:44:54;4.35;;;2.25;;
73557;SDS011;61829;53.286;10.434;2023-03-17T10:47:37;4.30;;;2.25;;
73557;SDS011;61829;53.286;10.434;2023-03-17T10:52:56;4.18;;;2.10;;
73557;SDS011;61829;53.286;10.434;2023-03-17T10:58:05;5.00;;;1.90;;
73557;SDS011;61829;53.286;10.434;2023-03-17T11:00:53;4.60;;;2.22;;
73557;SDS011;61829;53.286;10.434;2023-03-17T11:03:27;5.80;;;2.30;;
73557;SDS011;61829;53.286;10.434;2023-03-17T11:06:03;4.30;;;2.10;;
73557;SDS011;61829;53.286;10.434;2023-03-17T11:08:38;5.10;;;2.20;;
73557;SDS011;61829;53.286;10.434;2023-03-17T11:11:08;4.45;;;2.30;;
73557;SDS011;61829;53.286;10.434;2023-03-17T11:13:48;3.72;;;2.10;;
73557;SDS011;61829;53.286;10.434;2023-03-17T11:16:22;4.65;;;2.47;;
73557;SDS011;61829;53.286;10.434;2023-03-17T11:19:10;4.38;;;2.00;;
73557;SDS011;61829;53.286;10.434;2023-03-17T11:21:46;3.42;;;1.73;;
73557;SDS011;61829;53.286;10.434;2023-03-17T11:24:28;2.92;;;1.77;;
73557;SDS011;61829;53.286;10.434;2023-03-17T11:27:31;4.85;;;2.55;;
73557;SDS011;61829;53.286;10.434;2023-03-17T11:32:34;3.28;;;1.83;;
73557;SDS011;61829;53.286;10.434;2023-03-17T11:38:25;3.95;;;1.80;;
73557;SDS011;61829;53.286;10.434;2023-03-17T11:41:13;3.78;;;2.08;;
73557;SDS011;61829;53.286;10.434;2023-03-17T11:46:18;4.60;;;2.20;;
73557;SDS011;61829;53.286;10.434;2023-03-17T11:54:05;3.58;;;1.90;;
73557;SDS011;61829;53.286;10.434;2023-03-17T12:07:32;5.88;;;1.58;;
73557;SDS011;61829;53.286;10.434;2023-03-17T12:15:49;3.75;;;1.92;;
73557;SDS011;61829;53.286;10.434;2023-03-17T12:18:22;3.95;;;1.70;;
73557;SDS011;61829;53.286;10.434;2023-03-17T12:20:59;3.50;;;1.85;;
73557;SDS011;61829;53.286;10.434;2023-03-17T12:32:22;4.53;;;1.75;;
73557;SDS011;61829;53.286;10.434;2023-03-17T12:34:51;4.72;;;1.90;;
73557;SDS011;61829;53.286;10.434;2023-03-17T12:37:21;3.20;;;1.67;;
73557;SDS011;61829;53.286;10.434;2023-03-17T12:39:53;3.42;;;1.50;;
73557;SDS011;61829;53.286;10.434;2023-03-17T12:42:48;3.22;;;1.63;;
73557;SDS011;61829;53.286;10.434;2023-03-17T12:53:43;4.13;;;1.83;;
73557;SDS011;61829;53.286;10.434;2023-03-17T12:56:16;4.05;;;1.60;;
73557;SDS011;61829;53.286;10.434;2023-03-17T12:58:48;3.58;;;1.60;;
73557;SDS011;61829;53.286;10.434;2023-03-17T13:06:22;6.55;;;1.98;;
73557;SDS011;61829;53.286;10.434;2023-03-17T13:08:49;3.95;;;1.80;;
73557;SDS011;61829;53.286;10.434;2023-03-17T13:18:09;4.63;;;1.70;;
73557;SDS011;61829;53.286;10.434;2023-03-17T13:22:32;2.80;;;1.40;;
73557;SDS011;61829;53.286;10.434;2023-03-17T13:26:01;4.32;;;1.65;;
73557;SDS011;61829;53.286;10.434;2023-03-17T13:49:01;2.67;;;1.60;;
73557;SDS011;61829;53.286;10.434;2023-03-17T13:51:39;5.22;;;1.80;;
73557;SDS011;61829;53.286;10.434;2023-03-17T13:56:51;4.97;;;1.50;;
73557;SDS011;61829;53.286;10.434;2023-03-17T13:59:20;3.78;;;1.50;;
73557;SDS011;61829;53.286;10.434;2023-03-17T14:02:13;3.53;;;1.60;;
73557;SDS011;61829;53.286;10.434;2023-03-17T14:04:58;3.92;;;1.48;;
73557;SDS011;61829;53.286;10.434;2023-03-17T14:07:49;3.78;;;1.33;;
73557;SDS011;61829;53.286;10.434;2023-03-17T14:10:21;3.58;;;1.60;;
73557;SDS011;61829;53.286;10.434;2023-03-17T14:12:53;3.65;;;1.52;;
73557;SDS011;61829;53.286;10.434;2023-03-17T14:15:29;3.10;;;1.63;;
73557;SDS011;61829;53.286;10.434;2023-03-17T14:18:01;2.85;;;1.40;;
73557;SDS011;61829;53.286;10.434;2023-03-17T14:23:31;4.97;;;1.63;;
73557;SDS011;61829;53.286;10.434;2023-03-17T14:25:59;2.97;;;1.60;;
73557;SDS011;61829;53.286;10.434;2023-03-17T14:28:28;3.72;;;1.48;;
73557;SDS011;61829;53.286;10.434;2023-03-17T14:31:00;3.30;;;1.67;;
73557;SDS011;61829;53.286;10.434;2023-03-17T14:36:00;4.30;;;1.85;;
73557;SDS011;61829;53.286;10.434;2023-03-17T14:38:33;6.10;;;2.50;;
73557;SDS011;61829;53.286;10.434;2023-03-17T14:43:33;4.38;;;1.80;;
73557;SDS011;61829;53.286;10.434;2023-03-17T14:51:49;4.82;;;2.05;;
73557;SDS011;61829;53.286;10.434;2023-03-17T14:54:18;3.38;;;1.67;;
73557;SDS011;61829;53.286;10.434;2023-03-17T14:56:51;5.53;;;1.50;;
73557;SDS011;61829;53.286;10.434;2023-03-17T14:59:34;3.72;;;1.60;;
73557;SDS011;61829;53.286;10.434;2023-03-17T15:02:20;5.20;;;1.75;;
73557;SDS011;61829;53.286;10.434;2023-03-17T15:04:52;3.65;;;1.80;;
73557;SDS011;61829;53.286;10.434;2023-03-17T15:10:22;3.47;;;1.80;;
73557;SDS011;61829;53.286;10.434;2023-03-17T15:12:58;4.05;;;1.70;;
73557;SDS011;61829;53.286;10.434;2023-03-17T15:15:32;3.63;;;1.15;;
73557;SDS011;61829;53.286;10.434;2023-03-17T15:18:02;2.70;;;1.35;;
73557;SDS011;61829;53.286;10.434;2023-03-17T15:20:32;3.50;;;1.42;;
73557;SDS011;61829;53.286;10.434;2023-03-17T15:23:02;3.38;;;1.50;;
73557;SDS011;61829;53.286;10.434;2023-03-17T15:25:38;5.32;;;2.78;;
73557;SDS011;61829;53.286;10.434;2023-03-17T15:28:14;3.13;;;1.40;;
73557;SDS011;61829;53.286;10.434;2023-03-17T15:30:42;3.28;;;1.40;;
73557;SDS011;61829;53.286;10.434;2023-03-17T15:35:41;3.78;;;1.50;;
73557;SDS011;61829;53.286;10.434;2023-03-17T15:38:08;3.53;;;1.40;;
73557;SDS011;61829;53.286;10.434;2023-03-17T15:40:36;2.92;;;1.45;;
73557;SDS011;61829;53.286;10.434;2023-03-17T15:43:01;3.85;;;1.60;;
73557;SDS011;61829;53.286;10.434;2023-03-17T15:45:27;4.28;;;1.60;;
73557;SDS011;61829;53.286;10.434;2023-03-17T15:47:53;4.03;;;1.70;;
73557;SDS011;61829;53.286;10.434;2023-03-17T15:52:56;4.65;;;1.65;;
73557;SDS011;61829;53.286;10.434;2023-03-17T15:55:27;4.25;;;1.80;;
73557;SDS011;61829;53.286;10.434;2023-03-17T15:57:54;4.47;;;1.70;;
73557;SDS011;61829;53.286;10.434;2023-03-17T16:02:48;3.28;;;1.50;;
73557;SDS011;61829;53.286;10.434;2023-03-17T16:05:19;3.25;;;1.40;;
73557;SDS011;61829;53.286;10.434;2023-03-17T16:07:48;2.92;;;1.40;;
73557;SDS011;61829;53.286;10.434;2023-03-17T16:10:16;3.30;;;1.40;;
73557;SDS011;61829;53.286;10.434;2023-03-17T16:12:52;3.75;;;1.60;;
73557;SDS011;61829;53.286;10.434;2023-03-17T16:17:53;4.47;;;1.58;;
73557;SDS011;61829;53.286;10.434;2023-03-17T16:20:24;3.63;;;1.92;;
73557;SDS011;61829;53.286;10.434;2023-03-17T16:22:54;3.83;;;1.40;;
73557;SDS011;61829;53.286;10.434;2023-03-17T16:27:50;4.03;;;1.50;;
73557;SDS011;61829;53.286;10.434;2023-03-17T16:30:19;4.43;;;1.80;;
73557;SDS011;61829;53.286;10.434;2023-03-17T16:32:53;4.90;;;2.40;;
73557;SDS011;61829;53.286;10.434;2023-03-17T16:35:24;3.90;;;2.20;;
73557;SDS011;61829;53.286;10.434;2023-03-17T16:37:50;4.28;;;1.65;;
73557;SDS011;61829;53.286;10.434;2023-03-17T16:40:23;4.88;;;2.15;;
73557;SDS011;61829;53.286;10.434;2023-03-17T16:42:49;4.70;;;1.85;;
73557;SDS011;61829;53.286;10.434;2023-03-17T16:47:46;2.92;;;1.80;;
73557;SDS011;61829;53.286;10.434;2023-03-17T16:50:14;3.22;;;1.60;;
73557;SDS011;61829;53.286;10.434;2023-03-17T16:52:41;3.00;;;1.58;;
73557;SDS011;61829;53.286;10.434;2023-03-17T16:55:07;4.63;;;1.90;;
73557;SDS011;61829;53.286;10.434;2023-03-17T16:57:34;4.07;;;1.80;;
73557;SDS011;61829;53.286;10.434;2023-03-17T17:00:03;4.18;;;1.83;;
73557;SDS011;61829;53.286;10.434;2023-03-17T17:02:30;5.32;;;1.92;;
73557;SDS011;61829;53.286;10.434;2023-03-17T17:04:56;4.68;;;1.90;;
73557;SDS011;61829;53.286;10.434;2023-03-17T17:07:21;6.38;;;2.15;;
73557;SDS011;61829;53.286;10.434;2023-03-17T17:09:47;3.42;;;1.90;;
73557;SDS011;61829;53.286;10.434;2023-03-17T17:12:13;4.18;;;1.80;;
73557;SDS011;61829;53.286;10.434;2023-03-17T17:14:39;4.22;;;2.00;;
73557;SDS011;61829;53.286;10.434;2023-03-17T17:17:05;3.08;;;1.65;;
73557;SDS011;61829;53.286;10.434;2023-03-17T17:19:30;5.60;;;1.95;;
73557;SDS011;61829;53.286;10.434;2023-03-17T17:21:56;4.50;;;1.92;;
73557;SDS011;61829;53.286;10.434;2023-03-17T17:24:22;7.35;;;2.20;;
73557;SDS011;61829;53.286;10.434;2023-03-17T17:26:48;5.63;;;2.67;;
73557;SDS011;61829;53.286;10.434;2023-03-17T17:29:14;5.18;;;2.70;;
73557;SDS011;61829;53.286;10.434;2023-03-17T17:31:40;6.40;;;2.55;;
73557;SDS011;61829;53.286;10.434;2023-03-17T17:34:06;5.00;;;2.40;;
73557;SDS011;61829;53.286;10.434;2023-03-17T17:36:31;5.07;;;2.72;;